Tucker, Arkansas
Current Conditions -  °F | °C
As of 1:53 AM on Sunday 23 Nov 2014 (Local Time) from KPBF Reporting Station
Scattered Clouds Scattered Clouds  
Wind Chill: 57°   Ceiling: Unl
Heat Index: 57°   Visibility: 10mi
Dew Point: 51°   Wind: 12mph
Humidity: 81%   Direction: 130°SE
Pressure: 29.79"   Gusts: NA
Location:  34.44°N, 91.95°W
Report Text: KPBF 230753Z AUTO 13010KT 10SM FEW042 SCT090 14/11 A2979 RMK AO2 SLP086 T01390106
Loading
Personal Weather Stations






























Interactive Weather Map New forecast layout! Learn more

10-Day Weather Forecast

Advertisements
Track Severe Weather on mobile